Time;durP1;ratioP1;P1;durP2;ratioP2;P2;SDS_P1;SDS_P2;PMS_P1;PMS_P2;Temp;Humidity;BMP_temperature;BMP_pressure;BME280_temperature;BME280_humidity;BME280_pressure;Samples;Min_cycle;Max_cycle;Signal;HPM_P1;HPM_P2
2022/03/18 00:00:42;;;;;;;32.73;24.30;;;;;;;11.64;64.92;99042.56;5070512;28;20193;-69
2022/03/18 00:03:08;;;;;;;30.53;23.87;;;;;;;11.68;64.66;99051.91;5070873;28;20214;-71
2022/03/18 00:05:34;;;;;;;29.40;23.00;;;;;;;11.68;64.70;99044.84;5059397;28;20174;-70
2022/03/18 00:08:00;;;;;;;30.37;22.10;;;;;;;11.61;64.66;99050.66;5077766;28;20190;-70
2022/03/18 00:10:25;;;;;;;33.07;21.87;;;;;;;11.59;64.67;99052.59;5071289;28;20784;-70
2022/03/18 00:12:52;;;;;;;28.10;22.10;;;;;;;11.55;64.42;99049.31;5077902;28;20206;-71
2022/03/18 00:15:18;;;;;;;29.03;23.00;;;;;;;11.57;64.57;99043.97;5071268;28;20560;-70
2022/03/18 00:17:43;;;;;;;27.10;20.93;;;;;;;11.61;64.23;99045.41;5077261;28;20425;-70
2022/03/18 00:20:11;;;;;;;28.03;21.10;;;;;;;11.57;64.27;99059.72;5077302;28;20475;-69
2022/03/18 00:22:37;;;;;;;31.80;23.70;;;;;;;11.60;64.50;99046.34;5072461;28;20210;-70
2022/03/18 00:25:04;;;;;;;30.80;22.97;;;;;;;11.48;64.24;99054.19;5069596;28;20445;-70
2022/03/18 00:27:29;;;;;;;30.20;22.07;;;;;;;11.53;64.46;99052.06;5076501;28;20420;-69
2022/03/18 00:29:56;;;;;;;29.43;21.73;;;;;;;11.63;64.50;99054.00;5077403;28;20416;-70
2022/03/18 00:32:23;;;;;;;28.70;21.10;;;;;;;11.63;64.19;99044.38;5068575;28;20217;-69
2022/03/18 00:34:48;;;;;;;28.73;20.20;;;;;;;11.58;64.08;99050.91;5077172;28;20432;-70
2022/03/18 00:37:14;;;;;;;28.67;21.97;;;;;;;11.56;64.02;99047.56;5075803;28;20435;-69
2022/03/18 00:39:39;;;;;;;26.67;20.30;;;;;;;11.56;64.05;99051.00;5076409;28;20170;-70
2022/03/18 00:42:05;;;;;;;25.73;20.30;;;;;;;11.60;64.17;99046.34;5076102;28;20197;-69
2022/03/18 00:44:31;;;;;;;28.40;21.93;;;;;;;11.65;63.99;99052.13;5076380;28;20669;-70
2022/03/18 00:46:56;;;;;;;26.00;19.57;;;;;;;11.67;63.66;99051.03;5077225;28;20432;-70
2022/03/18 00:52:06;;;;;;;28.30;20.57;;;;;;;11.71;63.35;99049.03;5072116;28;20189;-69
2022/03/18 00:54:31;;;;;;;25.83;20.50;;;;;;;11.73;63.80;99052.38;5073372;28;20445;-71
2022/03/18 00:56:57;;;;;;;29.30;20.20;;;;;;;11.67;63.63;99060.72;5070394;28;20194;-70
2022/03/18 00:59:22;;;;;;;26.03;19.57;;;;;;;11.67;63.63;99052.84;5066518;28;20178;-70
2022/03/18 01:01:52;;;;;;;27.13;20.27;;;;;;;11.71;63.32;99053.44;5077354;28;20224;-70
2022/03/18 01:04:21;;;;;;;25.17;20.60;;;;;;;11.70;63.28;99055.25;5075418;28;20206;-70
2022/03/18 01:06:47;;;;;;;28.13;20.17;;;;;;;11.73;63.02;99059.44;5078118;28;20409;-70
2022/03/18 01:09:12;;;;;;;24.13;19.67;;;;;;;11.71;63.32;99048.19;5077197;28;20788;-70
2022/03/18 01:11:38;;;;;;;28.27;20.00;;;;;;;11.75;63.09;99054.91;5072030;28;20179;-69
2022/03/18 01:14:04;;;;;;;24.30;19.27;;;;;;;11.78;62.96;99060.75;5064569;28;20202;-69
2022/03/18 01:16:30;;;;;;;26.47;19.07;;;;;;;11.64;62.96;99060.94;5064614;28;20178;-69
2022/03/18 01:18:55;;;;;;;26.77;19.30;;;;;;;11.62;63.10;99063.69;5073420;28;20178;-70
2022/03/18 01:21:20;;;;;;;24.90;19.70;;;;;;;11.65;63.09;99057.38;5069881;28;20209;-70
2022/03/18 01:23:46;;;;;;;27.00;19.27;;;;;;;11.68;62.86;99062.41;5066547;28;20217;-70
2022/03/18 01:26:11;;;;;;;27.80;20.30;;;;;;;11.63;63.10;99056.63;5066208;28;20183;-72
2022/03/18 01:28:37;;;;;;;22.93;18.60;;;;;;;11.64;63.13;99066.19;5075940;28;20174;-71
2022/03/18 01:31:02;;;;;;;25.60;19.23;;;;;;;11.70;62.68;99065.75;5074544;28;20200;-71
2022/03/18 01:33:28;;;;;;;23.70;18.17;;;;;;;11.70;62.55;99059.66;5075492;28;20224;-70
2022/03/18 01:35:53;;;;;;;24.60;18.87;;;;;;;11.61;62.86;99056.75;5075732;28;20186;-70
2022/03/18 01:38:19;;;;;;;22.53;17.97;;;;;;;11.61;62.57;99061.16;5074769;28;20530;-70
2022/03/18 01:40:44;;;;;;;23.33;19.17;;;;;;;11.58;62.94;99059.59;5075387;28;20265;-72
2022/03/18 01:43:11;;;;;;;23.77;18.90;;;;;;;11.50;62.71;99054.91;5076155;28;20206;-70
2022/03/18 01:45:37;;;;;;;22.77;17.53;;;;;;;11.50;62.83;99065.41;5076297;28;20185;-71
2022/03/18 01:48:04;;;;;;;23.53;18.37;;;;;;;11.43;63.37;99063.34;5074732;28;20424;-69
2022/03/18 01:50:30;;;;;;;22.10;18.37;;;;;;;11.44;63.24;99065.88;5074712;28;20427;-70
2022/03/18 01:52:56;;;;;;;24.13;17.80;;;;;;;11.46;63.30;99071.88;5069609;28;20453;-70
2022/03/18 01:55:22;;;;;;;24.87;17.63;;;;;;;11.42;63.30;99065.16;5074422;28;20457;-69
2022/03/18 01:57:48;;;;;;;22.00;17.30;;;;;;;11.43;63.21;99065.97;5074169;28;20478;-70
2022/03/18 02:00:14;;;;;;;24.87;17.77;;;;;;;11.50;63.12;99065.41;5074414;28;20429;-69
2022/03/18 02:02:39;;;;;;;22.40;17.73;;;;;;;11.55;63.03;99072.13;5074694;28;20548;-71
2022/03/18 02:05:05;;;;;;;19.30;17.07;;;;;;;11.48;62.80;99072.56;5075176;28;20497;-68
2022/03/18 02:07:31;;;;;;;21.40;17.33;;;;;;;11.45;63.08;99071.97;5074476;28;20175;-70
2022/03/18 02:09:57;;;;;;;22.90;17.00;;;;;;;11.49;62.62;99074.25;5075472;28;20432;-69
2022/03/18 02:12:22;;;;;;;25.33;17.33;;;;;;;11.52;62.44;99079.28;5074169;28;20408;-69
2022/03/18 02:14:48;;;;;;;19.87;17.10;;;;;;;11.48;62.49;99077.81;5066923;28;20700;-69
2022/03/18 02:17:15;;;;;;;25.20;17.10;;;;;;;11.50;62.75;99078.56;5072023;28;20182;-69
2022/03/18 02:19:42;;;;;;;22.30;16.83;;;;;;;11.54;62.69;99076.53;5072278;28;20206;-70
2022/03/18 02:22:11;;;;;;;20.93;16.10;;;;;;;11.52;62.75;99075.84;5067434;28;20833;-69
2022/03/18 02:24:45;;;;;;;21.73;16.60;;;;;;;11.50;62.33;99075.94;5071524;28;20466;-68
2022/03/18 02:27:10;;;;;;;22.47;16.90;;;;;;;11.45;62.78;99083.31;5071276;28;20428;-71
2022/03/18 02:29:36;;;;;;;19.57;15.50;;;;;;;11.36;62.68;99076.94;5072314;28;20431;-70
2022/03/18 02:32:03;;;;;;;25.40;16.40;;;;;;;11.42;62.60;99090.56;5072327;28;20191;-70
2022/03/18 02:34:29;;;;;;;21.90;16.20;;;;;;;11.53;62.70;99093.25;5071539;28;20202;-71
2022/03/18 02:36:55;;;;;;;22.80;15.50;;;;;;;11.53;62.32;99088.00;5070387;28;20421;-70
2022/03/18 02:39:20;;;;;;;20.07;16.83;;;;;;;11.56;62.40;99087.78;5071983;28;20182;-70
2022/03/18 02:41:46;;;;;;;21.40;16.13;;;;;;;11.55;62.15;99083.47;5071732;28;20563;-69
2022/03/18 02:44:11;;;;;;;19.93;15.97;;;;;;;11.55;61.98;99082.63;5070608;28;20224;-68
2022/03/18 02:46:37;;;;;;;19.10;15.90;;;;;;;11.58;62.28;99082.41;5071825;28;20182;-69
2022/03/18 02:49:03;;;;;;;23.70;16.90;;;;;;;11.58;61.88;99085.88;5071946;28;20186;-69
2022/03/18 02:51:29;;;;;;;18.73;16.23;;;;;;;11.63;61.91;99090.78;5066542;28;20533;-71
2022/03/18 02:53:55;;;;;;;26.03;16.10;;;;;;;11.54;61.74;99097.53;5070567;28;20444;-70
2022/03/18 02:56:21;;;;;;;19.77;15.40;;;;;;;11.50;61.84;99094.31;5070907;28;20436;-70
2022/03/18 02:58:47;;;;;;;22.43;15.80;;;;;;;11.53;61.86;99096.72;5070131;28;20421;-69
2022/03/18 03:01:13;;;;;;;19.17;15.80;;;;;;;11.50;61.95;99094.31;5070302;28;20435;-70
2022/03/18 03:03:38;;;;;;;21.27;16.03;;;;;;;11.53;61.77;99096.72;5071811;28;20202;-71
2022/03/18 03:08:47;;;;;;;21.00;17.47;;;;;;;11.59;61.32;99099.84;5071735;28;20182;-70
2022/03/18 03:11:13;;;;;;;18.40;14.70;;;;;;;11.58;61.36;99111.31;5070436;28;20935;-69
2022/03/18 03:13:39;;;;;;;18.90;14.23;;;;;;;11.58;61.53;99104.25;5062572;28;20202;-70
2022/03/18 03:16:05;;;;;;;22.60;16.40;;;;;;;11.52;61.14;99113.41;5065489;28;20178;-70
2022/03/18 03:18:30;;;;;;;20.80;16.53;;;;;;;11.40;61.71;99109.06;5065600;28;20170;-70
2022/03/18 03:20:56;;;;;;;20.57;15.70;;;;;;;11.42;61.74;99112.41;5061085;28;20182;-69
2022/03/18 03:23:23;;;;;;;20.60;15.60;;;;;;;11.48;61.21;99119.84;5067613;28;20252;-68
2022/03/18 03:25:50;;;;;;;21.00;15.80;;;;;;;11.44;61.63;99115.78;5070973;28;20420;-69
2022/03/18 03:28:17;;;;;;;20.90;14.83;;;;;;;11.42;61.74;99125.53;5071039;28;20448;-70
2022/03/18 03:30:42;;;;;;;25.27;15.93;;;;;;;11.47;61.79;99126.03;5069682;28;20428;-71
2022/03/18 03:33:08;;;;;;;20.17;14.77;;;;;;;11.43;61.87;99132.47;5036334;28;20507;-70
2022/03/18 03:35:33;;;;;;;22.30;16.10;;;;;;;11.41;61.70;99128.25;5069203;28;20197;-71
2022/03/18 03:37:59;;;;;;;19.90;14.67;;;;;;;11.46;61.56;99134.88;5069773;28;20705;-70
2022/03/18 03:40:24;;;;;;;17.80;14.90;;;;;;;11.49;61.38;99133.81;5070617;28;20190;-71
2022/03/18 03:42:50;;;;;;;18.30;15.07;;;;;;;11.52;61.29;99137.06;5071332;28;20205;-71
2022/03/18 03:45:15;;;;;;;23.53;15.63;;;;;;;11.48;61.18;99137.38;5077693;28;20208;-70
2022/03/18 03:47:41;;;;;;;18.60;14.53;;;;;;;11.46;61.12;99137.50;5071358;28;20214;-71
2022/03/18 03:50:08;;;;;;;17.53;13.43;;;;;;;11.48;61.46;99138.22;5069430;28;20232;-70
2022/03/18 03:52:35;;;;;;;19.73;14.20;;;;;;;11.45;61.47;99138.47;5065467;28;20201;-68
2022/03/18 03:55:05;;;;;;;20.03;13.83;;;;;;;11.44;61.18;99139.41;5070422;28;20472;-70
2022/03/18 03:57:30;;;;;;;20.50;15.03;;;;;;;11.40;61.01;99142.38;5069513;28;20469;-71
2022/03/18 03:59:56;;;;;;;17.60;14.67;;;;;;;11.32;61.44;99140.28;5070367;28;21088;-70
2022/03/18 04:02:22;;;;;;;18.73;14.53;;;;;;;11.25;61.39;99144.28;5070478;28;20259;-70
2022/03/18 04:04:48;;;;;;;20.00;14.30;;;;;;;11.27;61.57;99145.88;5070267;28;20205;-70
2022/03/18 04:07:14;;;;;;;17.53;14.13;;;;;;;11.34;61.68;99148.91;5059868;28;20424;-70
2022/03/18 04:09:39;;;;;;;18.83;13.67;;;;;;;11.35;61.43;99147.91;5070630;28;20508;-71
2022/03/18 04:12:05;;;;;;;18.60;14.30;;;;;;;11.36;61.43;99149.59;5070496;28;20232;-70
2022/03/18 04:14:30;;;;;;;21.93;15.67;;;;;;;11.34;61.40;99152.34;5065016;28;20681;-70
2022/03/18 04:16:56;;;;;;;20.57;14.70;;;;;;;11.41;61.15;99160.63;5063856;28;20256;-71
2022/03/18 04:19:21;;;;;;;20.57;14.63;;;;;;;11.38;61.03;99155.59;5070678;28;20178;-69
2022/03/18 04:21:47;;;;;;;17.80;14.30;;;;;;;11.35;60.91;99164.53;5063851;28;20198;-70
2022/03/18 04:24:12;;;;;;;18.07;14.60;;;;;;;11.31;61.25;99162.25;5070195;28;20202;-70
2022/03/18 04:26:38;;;;;;;17.33;13.83;;;;;;;11.30;61.33;99165.81;5070306;28;20179;-70
2022/03/18 04:29:03;;;;;;;19.37;14.63;;;;;;;11.29;61.35;99172.81;5070051;28;20178;-70
2022/03/18 04:31:28;;;;;;;20.90;15.37;;;;;;;11.31;60.93;99175.34;5069916;28;20174;-71
2022/03/18 04:33:54;;;;;;;20.57;14.77;;;;;;;11.28;61.04;99178.19;5053226;28;20770;-70
2022/03/18 04:36:19;;;;;;;19.20;14.57;;;;;;;11.25;61.24;99175.78;5050159;28;20183;-70
2022/03/18 04:38:45;;;;;;;17.20;13.80;;;;;;;11.27;61.12;99180.00;5070542;28;20270;-71
2022/03/18 04:41:10;;;;;;;17.87;14.20;;;;;;;11.30;60.87;99184.19;5064858;28;20821;-71
2022/03/18 04:43:36;;;;;;;18.80;15.30;;;;;;;11.26;61.00;99195.84;5029433;28;20226;-69
2022/03/18 04:46:01;;;;;;;18.20;15.40;;;;;;;11.31;60.89;99191.13;5058042;28;20186;-71
2022/03/18 04:48:27;;;;;;;21.10;14.87;;;;;;;11.27;60.73;99194.91;5049727;28;20183;-69
2022/03/18 04:50:52;;;;;;;20.67;14.27;;;;;;;11.31;60.98;99191.94;5044253;28;20267;-70
2022/03/18 04:53:18;;;;;;;16.57;13.77;;;;;;;11.33;60.71;99197.09;5052292;28;20194;-69
2022/03/18 04:55:44;;;;;;;22.50;16.10;;;;;;;11.41;60.59;99196.53;5036365;28;20190;-70
2022/03/18 04:58:09;;;;;;;22.20;16.00;;;;;;;11.36;60.27;99196.84;5052579;28;20413;-71
2022/03/18 05:00:36;;;;;;;20.87;15.73;;;;;;;11.35;60.69;99195.19;5054697;28;20175;-70
2022/03/18 05:03:02;;;;;;;18.23;14.30;;;;;;;11.31;60.50;99196.38;5054621;28;20583;-70
2022/03/18 05:05:28;;;;;;;19.60;15.60;;;;;;;11.27;60.32;99205.38;5053609;28;20432;-70
2022/03/18 05:07:53;;;;;;;23.40;16.43;;;;;;;11.26;60.63;99204.56;5054016;28;20418;-71
2022/03/18 05:10:19;;;;;;;20.40;15.53;;;;;;;11.27;60.78;99203.63;5054222;28;20175;-70
2022/03/18 05:12:45;;;;;;;20.70;15.93;;;;;;;11.26;60.53;99208.97;5051491;28;20206;-69
2022/03/18 05:15:11;;;;;;;22.30;15.80;;;;;;;11.22;60.50;99214.41;5045050;28;20481;-71
2022/03/18 05:17:37;;;;;;;23.20;16.13;;;;;;;11.18;60.69;99222.63;5053524;28;20449;-70
2022/03/18 05:20:05;;;;;;;24.40;16.37;;;;;;;11.18;60.70;99228.72;5053565;28;20187;-69
2022/03/18 05:22:31;;;;;;;21.77;15.37;;;;;;;11.19;60.64;99229.53;5060956;28;20869;-68
2022/03/18 05:24:57;;;;;;;23.73;16.53;;;;;;;11.19;60.79;99233.03;5052677;28;20440;-69
2022/03/18 05:27:24;;;;;;;26.87;16.80;;;;;;;11.16;60.73;99235.84;5053082;28;20742;-69
2022/03/18 05:29:49;;;;;;;22.53;16.50;;;;;;;11.22;60.87;99243.28;5052073;28;20418;-70
2022/03/18 05:32:15;;;;;;;20.03;15.47;;;;;;;11.23;60.67;99241.53;5052784;28;20509;-68
2022/03/18 05:34:41;;;;;;;21.77;15.60;;;;;;;11.34;60.49;99238.16;5047923;28;20669;-70
2022/03/18 05:37:06;;;;;;;21.93;16.77;;;;;;;11.26;60.13;99243.09;5053244;28;20421;-69
2022/03/18 05:39:33;;;;;;;26.50;17.73;;;;;;;11.20;60.01;99237.34;5052770;28;20269;-70
2022/03/18 05:41:58;;;;;;;22.27;16.57;;;;;;;11.14;60.25;99250.03;5053009;28;20551;-70
2022/03/18 05:44:24;;;;;;;25.13;18.37;;;;;;;11.15;60.28;99247.31;5043753;28;20462;-69
2022/03/18 05:46:51;;;;;;;27.57;17.77;;;;;;;11.03;60.19;99246.34;5052697;28;20233;-70
2022/03/18 05:49:18;;;;;;;22.47;16.20;;;;;;;11.04;60.24;99247.19;5052492;28;20206;-69
2022/03/18 05:51:45;;;;;;;22.73;16.60;;;;;;;11.02;60.54;99256.97;5051256;28;20430;-70
2022/03/18 05:54:10;;;;;;;22.37;17.47;;;;;;;11.01;60.77;99256.13;5045674;28;20641;-70
2022/03/18 05:56:54;;;;;;;26.33;18.37;;;;;;;11.08;60.45;99253.94;5052340;28;20528;-70
2022/03/18 05:59:27;;;;;;;22.93;17.07;;;;;;;11.11;60.43;99266.00;5060524;28;20182;-70
2022/03/18 06:01:54;;;;;;;24.90;17.77;;;;;;;11.10;60.29;99262.50;5051529;28;20454;-70
2022/03/18 06:04:20;;;;;;;26.93;17.73;;;;;;;11.13;60.45;99264.09;5033885;28;20528;-70
2022/03/18 06:06:47;;;;;;;22.50;16.10;;;;;;;11.14;60.37;99269.25;5052249;28;20502;-69
2022/03/18 06:11:56;;;;;;;31.00;18.67;;;;;;;11.20;60.23;99268.84;5058622;28;20916;-70
2022/03/18 06:14:24;;;;;;;25.40;18.80;;;;;;;11.27;60.04;99278.91;5046619;28;20528;-69
2022/03/18 06:16:55;;;;;;;25.30;17.83;;;;;;;11.31;59.45;99278.56;5050869;28;20201;-70
2022/03/18 06:19:21;;;;;;;24.60;17.40;;;;;;;11.34;59.64;99281.00;5050349;28;20422;-68
2022/03/18 06:21:47;;;;;;;24.97;17.40;;;;;;;11.41;59.73;99276.16;5052100;28;20457;-69
2022/03/18 06:24:13;;;;;;;22.67;17.03;;;;;;;11.39;59.43;99282.47;5051900;28;20491;-69
2022/03/18 06:26:39;;;;;;;25.50;18.63;;;;;;;11.30;59.77;99290.00;5047078;28;20509;-69
2022/03/18 06:29:05;;;;;;;25.90;17.40;;;;;;;11.34;59.54;99296.75;5052048;28;20187;-69
2022/03/18 06:31:32;;;;;;;26.80;18.20;;;;;;;11.32;59.06;99292.56;5051879;28;20176;-69
2022/03/18 06:33:58;;;;;;;26.03;19.00;;;;;;;11.31;59.43;99291.69;5051443;28;20964;-69
2022/03/18 06:36:23;;;;;;;28.60;18.83;;;;;;;11.30;59.82;99303.16;5043421;28;20527;-70
2022/03/18 06:38:48;;;;;;;26.60;19.60;;;;;;;11.30;59.37;99304.94;5033579;28;20193;-71
2022/03/18 06:41:16;;;;;;;26.50;19.10;;;;;;;11.27;59.54;99310.41;5016465;28;20179;-69
2022/03/18 06:43:43;;;;;;;27.23;19.53;;;;;;;11.28;59.78;99302.41;5041026;28;20565;-70
2022/03/18 06:46:08;;;;;;;34.17;21.43;;;;;;;11.34;59.51;99306.41;5049466;28;20430;-69
2022/03/18 06:48:34;;;;;;;29.00;20.00;;;;;;;11.38;59.44;99307.88;5050210;28;20445;-70
2022/03/18 06:51:00;;;;;;;30.47;19.47;;;;;;;11.37;59.34;99316.69;5050117;28;20190;-70
2022/03/18 06:53:26;;;;;;;29.57;20.17;;;;;;;11.26;59.43;99308.72;5057044;28;20549;-70
2022/03/18 06:55:51;;;;;;;31.40;21.30;;;;;;;11.25;59.10;99305.25;5070371;28;20621;-70
2022/03/18 06:58:17;;;;;;;34.40;22.03;;;;;;;11.31;59.32;99309.25;5061846;28;20421;-69
2022/03/18 07:00:42;;;;;;;32.30;21.23;;;;;;;11.32;59.24;99310.94;5071753;28;20239;-70
2022/03/18 07:03:08;;;;;;;31.13;21.53;;;;;;;11.31;59.32;99317.94;5071293;28;20228;-69
2022/03/18 07:05:33;;;;;;;29.50;21.43;;;;;;;11.33;59.58;99310.00;5070773;28;20252;-69
2022/03/18 07:07:59;;;;;;;33.80;22.27;;;;;;;11.36;59.69;99328.13;5070392;28;20320;-70
2022/03/18 07:10:24;;;;;;;27.87;20.20;;;;;;;11.39;59.56;99317.44;5071358;28;20194;-70
2022/03/18 07:12:50;;;;;;;29.97;20.17;;;;;;;11.37;59.20;99321.94;5070303;28;20190;-69
2022/03/18 07:15:16;;;;;;;31.10;22.27;;;;;;;11.35;58.92;99329.94;5058627;28;20719;-69
2022/03/18 07:17:59;;;;;;;28.20;20.03;;;;;;;11.34;59.42;99327.44;5070110;28;20182;-69
2022/03/18 07:20:26;;;;;;;30.30;20.23;;;;;;;11.34;59.41;99324.81;5070434;28;20235;-71
2022/03/18 07:23:07;;;;;;;29.70;20.73;;;;;;;11.37;59.20;99328.03;5062885;28;20456;-70
2022/03/18 07:25:40;;;;;;;29.70;19.87;;;;;;;11.36;59.53;99331.63;5070678;28;20428;-70
2022/03/18 07:28:08;;;;;;;36.13;22.53;;;;;;;11.42;59.51;99337.38;5071106;28;20486;-70
2022/03/18 07:30:37;;;;;;;31.63;22.70;;;;;;;11.44;59.42;99335.50;5055200;28;20511;-68
2022/03/18 07:33:03;;;;;;;37.03;25.87;;;;;;;11.44;59.42;99344.22;5052930;28;20524;-69
2022/03/18 07:35:30;;;;;;;34.07;23.00;;;;;;;11.45;59.28;99340.66;5069549;28;20444;-69
2022/03/18 07:37:55;;;;;;;39.73;24.97;;;;;;;11.43;59.12;99334.66;5071125;28;20912;-70
2022/03/18 07:40:21;;;;;;;39.57;24.83;;;;;;;11.43;59.32;99332.03;5070949;28;20435;-70
2022/03/18 07:42:48;;;;;;;35.20;25.30;;;;;;;11.47;59.23;99335.28;5069131;28;20210;-71
2022/03/18 07:45:22;;;;;;;41.27;26.37;;;;;;;11.41;58.80;99333.91;5070709;28;20294;-70
2022/03/18 07:47:49;;;;;;;42.60;26.97;;;;;;;11.44;58.63;99338.97;5070605;28;20421;-70
2022/03/18 07:50:22;;;;;;;42.00;26.67;;;;;;;11.48;58.75;99337.78;5070320;28;20435;-70
2022/03/18 07:52:51;;;;;;;41.87;26.77;;;;;;;11.49;58.57;99333.41;5056389;28;20927;-70
2022/03/18 07:55:22;;;;;;;43.50;26.70;;;;;;;11.40;58.92;99334.03;5070282;28;20488;-71
2022/03/18 07:57:48;;;;;;;41.13;27.17;;;;;;;11.47;58.54;99343.97;5064271;28;20422;-70
2022/03/18 08:00:15;;;;;;;44.10;28.83;;;;;;;11.40;58.82;99342.75;5068339;28;20856;-71
2022/03/18 08:02:41;;;;;;;41.60;27.70;;;;;;;11.47;58.96;99349.25;5068913;28;20891;-70
2022/03/18 08:05:07;;;;;;;46.47;29.77;;;;;;;11.36;58.65;99349.13;5070004;28;20455;-70
2022/03/18 08:07:36;;;;;;;42.00;28.40;;;;;;;11.45;58.49;99361.66;5069199;28;20433;-71
2022/03/18 08:10:02;;;;;;;43.70;29.47;;;;;;;11.41;58.72;99360.19;5071931;28;20225;-71
2022/03/18 08:12:28;;;;;;;46.47;29.70;;;;;;;11.40;58.75;99365.53;5069254;28;20429;-69
2022/03/18 08:14:55;;;;;;;43.57;30.00;;;;;;;11.37;58.45;99366.56;5063709;28;20505;-71
2022/03/18 08:17:21;;;;;;;43.47;27.67;;;;;;;11.28;58.68;99367.22;5069277;28;20186;-71
2022/03/18 08:19:46;;;;;;;50.57;29.97;;;;;;;11.36;58.67;99364.88;5069049;28;20483;-71
2022/03/18 08:22:11;;;;;;;46.80;30.33;;;;;;;11.46;58.34;99363.34;5052198;28;20690;-71
2022/03/18 08:24:37;;;;;;;55.10;30.60;;;;;;;11.46;58.17;99360.72;5070370;28;20202;-71
2022/03/18 08:27:02;;;;;;;49.80;30.37;;;;;;;11.24;58.36;99381.47;5075120;28;20713;-70
2022/03/18 08:29:28;;;;;;;52.50;32.90;;;;;;;11.35;58.07;99377.19;5074785;28;20178;-71
2022/03/18 08:31:53;;;;;;;49.27;29.93;;;;;;;11.21;58.04;99380.72;5076017;28;20182;-71
2022/03/18 08:34:20;;;;;;;48.53;31.17;;;;;;;11.32;57.50;99381.81;5075290;28;20352;-69
2022/03/18 08:36:46;;;;;;;49.20;30.60;;;;;;;11.37;57.39;99377.06;5072823;28;20178;-70
2022/03/18 08:39:11;;;;;;;44.37;30.37;;;;;;;11.43;57.69;99379.28;5073800;28;20432;-70
2022/03/18 08:41:36;;;;;;;49.10;32.50;;;;;;;11.42;57.59;99385.50;5072462;28;20221;-70
2022/03/18 08:44:02;;;;;;;48.50;32.43;;;;;;;11.44;57.15;99380.97;5074230;28;20281;-70
2022/03/18 08:46:28;;;;;;;48.80;32.17;;;;;;;11.54;56.93;99378.53;5072531;28;20186;-69
2022/03/18 08:48:53;;;;;;;51.30;30.07;;;;;;;11.67;56.71;99374.13;5074268;28;20637;-70
2022/03/18 08:51:18;;;;;;;48.30;32.07;;;;;;;11.75;56.78;99378.03;5073651;28;20182;-71
2022/03/18 08:53:44;;;;;;;50.30;32.07;;;;;;;11.74;56.41;99371.91;5065753;28;20263;-69
2022/03/18 08:56:09;;;;;;;49.97;31.80;;;;;;;11.89;56.41;99379.69;5071621;28;20559;-69
2022/03/18 08:58:35;;;;;;;46.33;30.20;;;;;;;11.75;56.00;99384.09;5070886;28;20247;-70
2022/03/18 09:01:00;;;;;;;46.43;30.67;;;;;;;11.94;55.98;99390.72;5069845;28;20270;-69
2022/03/18 09:03:26;;;;;;;48.17;30.60;;;;;;;11.86;55.68;99387.75;5072554;28;20622;-71
2022/03/18 09:05:51;;;;;;;43.17;28.63;;;;;;;11.86;55.48;99390.41;5073718;28;20187;-70
2022/03/18 09:08:18;;;;;;;45.30;29.20;;;;;;;11.99;55.01;99391.25;5073898;28;20640;-71
2022/03/18 09:10:44;;;;;;;46.17;29.40;;;;;;;11.92;55.26;99400.50;5074064;28;20547;-70
2022/03/18 09:13:10;;;;;;;41.40;27.57;;;;;;;11.91;54.66;99398.81;5073707;28;20421;-70
2022/03/18 09:15:35;;;;;;;46.27;30.10;;;;;;;11.86;54.78;99406.16;5066419;28;20272;-70
2022/03/18 09:18:01;;;;;;;40.90;26.47;;;;;;;11.86;54.92;99401.75;5073433;28;20269;-70
2022/03/18 09:20:26;;;;;;;47.87;28.87;;;;;;;12.00;54.72;99403.44;5066204;28;20187;-70
2022/03/18 09:22:52;;;;;;;40.90;27.33;;;;;;;11.91;54.67;99396.19;5065112;28;20217;-71
2022/03/18 09:25:18;;;;;;;42.80;27.47;;;;;;;11.95;55.05;99410.81;5061976;28;20603;-71
2022/03/18 09:27:44;;;;;;;42.17;26.60;;;;;;;12.00;54.38;99408.69;5073677;28;20178;-71
2022/03/18 09:30:11;;;;;;;35.43;25.13;;;;;;;11.96;54.54;99418.56;5073598;28;20232;-71
2022/03/18 09:32:38;;;;;;;39.70;26.30;;;;;;;12.04;54.14;99410.19;5071660;28;20764;-70
2022/03/18 09:35:05;;;;;;;35.33;25.30;;;;;;;11.90;53.49;99412.91;5072320;28;20460;-71
2022/03/18 09:37:30;;;;;;;39.40;24.83;;;;;;;12.10;53.43;99419.41;5072578;28;20436;-71
2022/03/18 09:39:56;;;;;;;38.20;25.17;;;;;;;12.23;53.49;99427.28;5060454;28;20568;-70
2022/03/18 09:42:22;;;;;;;42.33;26.07;;;;;;;12.35;53.04;99421.13;5070212;28;20221;-71
2022/03/18 09:44:48;;;;;;;38.77;24.67;;;;;;;12.45;52.13;99426.59;5073187;28;20202;-71
2022/03/18 09:47:13;;;;;;;37.57;25.10;;;;;;;12.55;52.43;99421.50;5059617;28;20186;-71
2022/03/18 09:49:38;;;;;;;39.87;24.40;;;;;;;12.61;52.28;99421.06;5064404;28;20938;-71
2022/03/18 09:52:05;;;;;;;35.70;24.03;;;;;;;12.74;51.68;99424.47;5064951;28;20214;-69
2022/03/18 09:54:32;;;;;;;38.33;24.33;;;;;;;13.12;51.03;99432.28;5064009;28;20206;-70
2022/03/18 09:56:58;;;;;;;34.83;23.43;;;;;;;13.19;50.35;99433.53;5049968;28;20944;-71
2022/03/18 09:59:27;;;;;;;34.97;24.50;;;;;;;13.02;50.22;99426.88;5052646;28;20437;-71
2022/03/18 10:02:25;;;;;;;36.10;25.63;;;;;;;12.96;50.25;99433.44;5053578;28;20449;-71
2022/03/18 10:04:54;;;;;;;36.20;24.13;;;;;;;13.01;50.03;99441.81;5066785;28;20536;-70
2022/03/18 10:07:21;;;;;;;37.90;23.87;;;;;;;12.84;49.78;99439.63;5072563;28;20438;-71
2022/03/18 10:09:47;;;;;;;39.03;24.87;;;;;;;13.09;49.73;99428.09;5070925;28;20425;-70
2022/03/18 10:12:33;;;;;;;41.37;25.53;;;;;;;13.09;49.37;99438.63;5072257;28;20431;-71
2022/03/18 10:15:16;;;;;;;36.43;24.20;;;;;;;13.21;49.24;99442.16;5066222;28;20453;-71
2022/03/18 10:17:49;;;;;;;36.60;24.13;;;;;;;13.36;48.63;99438.34;5072701;28;20473;-71
2022/03/18 10:20:35;;;;;;;32.50;23.30;;;;;;;13.66;48.30;99444.09;5072504;28;20477;-68
2022/03/18 10:23:05;;;;;;;37.90;24.40;;;;;;;13.57;48.23;99431.59;5063869;28;20759;-69
2022/03/18 10:25:37;;;;;;;39.70;25.73;;;;;;;13.61;48.49;99435.69;5071971;28;20453;-72
2022/03/18 10:28:04;;;;;;;38.30;23.47;;;;;;;13.66;48.18;99444.09;5071745;28;20474;-72
2022/03/18 10:30:31;;;;;;;35.80;25.13;;;;;;;13.69;47.95;99438.56;5072497;28;20436;-71
2022/03/18 10:32:56;;;;;;;39.43;24.50;;;;;;;13.82;48.06;99438.47;5054288;28;20421;-71
2022/03/18 10:38:28;;;;;;;42.90;25.63;;;;;;;14.03;47.44;99433.34;5071002;28;20202;-69
2022/03/18 10:40:54;;;;;;;36.77;24.57;;;;;;;14.10;46.62;99436.34;5054516;28;20468;-70
2022/03/18 10:43:20;;;;;;;38.83;25.77;;;;;;;14.03;46.46;99432.47;5071178;28;20502;-72
2022/03/18 10:46:18;;;;;;;38.30;24.87;;;;;;;13.97;46.36;99433.81;5071604;28;20421;-71
2022/03/18 10:49:06;;;;;;;41.37;25.93;;;;;;;14.17;46.13;99426.97;5059963;28;20452;-71
2022/03/18 10:51:35;;;;;;;37.90;26.13;;;;;;;13.98;46.53;99441.63;5064016;28;20474;-70
2022/03/18 10:54:01;;;;;;;43.93;25.47;;;;;;;14.20;46.47;99432.00;5064921;28;20441;-71
2022/03/18 10:56:26;;;;;;;39.40;26.60;;;;;;;14.25;45.91;99439.56;5068789;28;20455;-71
2022/03/18 10:58:52;;;;;;;36.50;25.37;;;;;;;14.12;45.94;99442.31;5069468;28;20187;-71
2022/03/18 11:01:22;;;;;;;37.00;25.97;;;;;;;14.03;46.12;99432.47;5067045;28;20194;-71
2022/03/18 11:03:48;;;;;;;39.33;25.63;;;;;;;14.06;46.37;99435.72;5046179;28;21094;-71
2022/03/18 11:06:16;;;;;;;40.57;25.63;;;;;;;13.97;46.52;99432.03;5068301;28;20511;-70
2022/03/18 11:08:46;;;;;;;40.30;26.23;;;;;;;14.07;46.81;99434.75;5044188;28;20609;-71
2022/03/18 11:11:20;;;;;;;38.87;26.97;;;;;;;14.03;46.53;99433.34;5068869;28;20977;-72
2022/03/18 11:13:59;;;;;;;37.67;25.00;;;;;;;13.72;46.98;99440.97;5050019;28;20484;-71
2022/03/18 11:16:28;;;;;;;38.03;26.17;;;;;;;13.95;46.85;99438.34;5051707;28;20432;-71
2022/03/18 11:18:54;;;;;;;39.57;27.03;;;;;;;14.12;46.58;99432.63;5052502;28;20455;-71
2022/03/18 11:21:21;;;;;;;38.77;27.90;;;;;;;14.22;46.34;99430.09;5066435;28;20432;-71
2022/03/18 11:23:47;;;;;;;35.70;26.57;;;;;;;14.22;46.49;99427.47;5048032;28;20564;-71
2022/03/18 11:26:15;;;;;;;37.40;25.87;;;;;;;14.15;46.29;99426.25;5043945;28;20425;-71